Hicksville, OH (43526)

10:41 AM EST on February 14, 2016 (GMT -0500)
Hicksville | | Change Station
CLOSE
Current Station
Personal Weather Station
Location: Hicksville, OH
Elevation: 774 ft
Nearby Weather Stations

Elev 774 ft 41.30 °N, 84.76 °W | Updated 13 seconds ago

Mostly Cloudy
Mostly Cloudy
22.1 °F
Feels Like 22 °F
N
2.7
Wind Variable Wind from ESE

Today
High -- | Low -- °F
--% Chance of Precip.
Yesterday
High -- | Low -- °F
Precip. -- in
Pressure 30.50 in
Visibility 10.0 miles
Clouds Clear
Windchill 22 °F
Dew Point 11 °F
Humidity 62%
Rainfall 0.00 in
Snow Depth Not available.
7:35 AM 6:11 PM
Waxing Crescent, 42% visible
METAR KDFI 141453Z AUTO VRB06KT 10SM CLR M09/M16 A3045 RMK AO2 SLP326 T10941161 58001
Pressure 30.50 in
Visibility 10.0 miles
Clouds Clear
Windchill 22 °F
Dew Point 11 °F
Humidity 62%
Rainfall 0.00 in
Snow Depth Not available.
7:35 AM 6:11 PM
Waxing Crescent, 42% visible
METAR KDFI 141453Z AUTO VRB06KT 10SM CLR M09/M16 A3045 RMK AO2 SLP326 T10941161 58001

10-Day Weather Forecast

Almanac

Astronomy

Feb. 14, 2016 Rise Set
Actual Time
Civil Twilight
Nautical Twilight
Astronomical Twilight
Moon
Length of Visible Light
Length of Day
Tomorrow will be .
, % of the Moon is Illuminated

Today's Extremes

State Highs State Lows

Community

WunderPhotos

Upload Photos

1,892,802 photos uploaded!

WunderBlog® & News

Nearby

Air Quality

  Air Quality AQ Index Pollutant
Not available.

Snow Depth

Station Depth Elevation

Earthquake Activity

City Distance Mag. Time & Date
Minimum magnitude displayed is 2.5.

Coastal Water Temperatures

Place Temperature

Stations

Nearby Weather Stations

Station Location Temp. Windchill Dew Point Humidity Wind Precip. Elev Updated Type
                   

Watches & Warnings

There are currently no watches in effect.